createdAt,value
2019-03-18T00:01:44.155Z,3.80
2019-03-18T00:04:13.474Z,3.80
2019-03-18T00:06:42.806Z,3.80
2019-03-18T00:09:12.142Z,3.80
2019-03-18T00:11:41.494Z,3.80
2019-03-18T00:14:10.826Z,3.70
2019-03-18T00:16:40.158Z,3.80
2019-03-18T00:19:09.492Z,3.80
2019-03-18T00:21:38.827Z,3.70
2019-03-18T00:24:08.239Z,3.80
2019-03-18T00:26:37.575Z,3.80
2019-03-18T00:29:06.980Z,3.80
2019-03-18T00:31:36.518Z,3.80
2019-03-18T00:34:05.929Z,3.80
2019-03-18T00:36:35.348Z,3.80
2019-03-18T00:39:07.331Z,3.80
2019-03-18T00:41:36.865Z,3.80
2019-03-18T00:44:06.693Z,3.80
2019-03-18T00:46:36.088Z,3.80
2019-03-18T00:49:05.422Z,3.80
2019-03-18T00:51:34.767Z,3.80
2019-03-18T00:54:04.097Z,3.70
2019-03-18T00:56:33.414Z,3.80
2019-03-18T00:59:02.760Z,3.70
2019-03-18T01:01:32.098Z,3.80
2019-03-18T01:04:01.430Z,3.80
2019-03-18T01:06:30.761Z,3.80
2019-03-18T01:09:00.086Z,3.80
2019-03-18T01:11:29.425Z,3.70
2019-03-18T01:13:58.838Z,3.80
2019-03-18T01:16:28.239Z,3.80
2019-03-18T01:18:57.636Z,3.70
2019-03-18T01:21:26.988Z,3.80
2019-03-18T01:23:56.374Z,3.80
2019-03-18T01:26:25.895Z,3.80
2019-03-18T01:28:55.229Z,3.80
2019-03-18T01:31:24.633Z,3.80
2019-03-18T01:33:54.002Z,3.80
2019-03-18T01:36:23.326Z,3.70
2019-03-18T01:38:52.655Z,3.80
2019-03-18T01:41:21.978Z,3.80
2019-03-18T01:43:51.305Z,3.80
2019-03-18T01:46:20.640Z,3.80
2019-03-18T01:48:49.967Z,3.80
2019-03-18T01:51:19.295Z,3.80
2019-03-18T01:53:48.882Z,3.80
2019-03-18T01:56:18.215Z,3.80
2019-03-18T01:58:47.554Z,3.80
2019-03-18T02:01:16.890Z,3.80
2019-03-18T02:03:46.234Z,3.70
2019-03-18T02:06:15.634Z,3.80
2019-03-18T02:08:45.241Z,3.80
2019-03-18T02:11:14.638Z,3.70
2019-03-18T02:13:43.972Z,3.70
2019-03-18T02:16:13.303Z,3.80
2019-03-18T02:18:42.710Z,3.80
2019-03-18T02:21:12.036Z,3.80
2019-03-18T02:23:41.375Z,3.70
2019-03-18T02:26:10.767Z,3.80
2019-03-18T02:28:40.167Z,3.70
2019-03-18T02:31:09.503Z,3.70
2019-03-18T02:33:38.887Z,3.70
2019-03-18T02:36:08.275Z,3.70
2019-03-18T02:38:37.600Z,3.70
2019-03-18T02:41:07.006Z,3.70
2019-03-18T02:43:36.338Z,3.70
2019-03-18T02:46:10.617Z,3.70
2019-03-18T02:48:36.966Z,3.70
2019-03-18T02:51:06.308Z,3.70
2019-03-18T02:53:35.645Z,3.70
2019-03-18T02:56:04.981Z,3.70
2019-03-18T02:58:34.384Z,3.60
2019-03-18T03:01:03.711Z,3.70
2019-03-18T03:03:36.617Z,3.70
2019-03-18T03:06:04.199Z,3.70
2019-03-18T03:08:33.529Z,3.70
2019-03-18T03:11:03.074Z,3.70
2019-03-18T03:13:32.471Z,3.70
2019-03-18T03:16:01.807Z,3.70
2019-03-18T03:18:31.403Z,3.70
2019-03-18T03:21:00.935Z,3.70
2019-03-18T03:23:30.268Z,3.70
2019-03-18T03:25:59.660Z,3.70
2019-03-18T03:28:28.993Z,3.70
2019-03-18T03:30:58.696Z,3.70
2019-03-18T03:33:28.096Z,3.70
2019-03-18T03:35:57.432Z,3.70
2019-03-18T03:38:26.757Z,3.70
2019-03-18T03:40:56.163Z,3.70
2019-03-18T03:43:25.552Z,3.70
2019-03-18T03:45:54.956Z,3.70
2019-03-18T03:48:24.615Z,3.70
2019-03-18T03:50:53.947Z,3.70
2019-03-18T03:53:23.290Z,3.70
2019-03-18T03:55:53.191Z,3.70
2019-03-18T03:58:22.923Z,3.70
2019-03-18T04:00:52.332Z,3.70
2019-03-18T04:03:37.202Z,3.60
2019-03-18T04:05:53.117Z,3.60
2019-03-18T04:08:22.902Z,3.60
2019-03-18T04:10:52.298Z,3.60
2019-03-18T04:13:21.651Z,3.50
2019-03-18T04:15:51.491Z,3.60
2019-03-18T04:18:21.407Z,3.60
2019-03-18T04:20:50.740Z,3.60
2019-03-18T04:23:20.070Z,3.50
2019-03-18T04:25:49.477Z,3.60
2019-03-18T04:28:19.355Z,3.60
2019-03-18T04:30:48.684Z,3.60
2019-03-18T04:33:18.011Z,3.60
2019-03-18T04:35:47.352Z,3.70
2019-03-18T04:38:16.667Z,3.60
2019-03-18T04:40:46.014Z,3.60
2019-03-18T04:43:15.343Z,3.70
2019-03-18T04:45:44.671Z,3.60
2019-03-18T04:48:14.068Z,3.70
2019-03-18T04:50:43.406Z,3.70
2019-03-18T04:53:12.738Z,3.60
2019-03-18T04:55:42.070Z,3.70
2019-03-18T04:58:11.395Z,3.70
2019-03-18T05:00:40.722Z,3.70
2019-03-18T05:03:10.054Z,3.70
2019-03-18T05:05:39.415Z,3.80
2019-03-18T05:08:08.743Z,3.80
2019-03-18T05:10:38.132Z,3.70
2019-03-18T05:13:07.505Z,3.70
2019-03-18T05:15:36.873Z,3.70
2019-03-18T05:18:06.286Z,3.70
2019-03-18T05:20:35.690Z,3.60
2019-03-18T05:23:05.307Z,3.70
2019-03-18T05:25:34.687Z,3.60
2019-03-18T05:28:03.998Z,3.60
2019-03-18T05:30:33.355Z,3.50
2019-03-18T05:33:03.010Z,3.50
2019-03-18T05:35:32.346Z,3.60
2019-03-18T05:38:01.670Z,3.60
2019-03-18T05:40:31.008Z,3.50
2019-03-18T05:43:00.416Z,3.50
2019-03-18T05:45:29.814Z,3.50
2019-03-18T05:47:59.138Z,3.50
2019-03-18T05:50:28.454Z,3.50
2019-03-18T05:52:57.854Z,3.50
2019-03-18T05:55:27.178Z,3.50
2019-03-18T05:57:56.506Z,3.50
2019-03-18T06:00:25.825Z,3.40
2019-03-18T06:02:55.151Z,3.50
2019-03-18T06:05:24.490Z,3.50
2019-03-18T06:07:53.815Z,3.50
2019-03-18T06:10:23.153Z,3.50
2019-03-18T06:12:52.528Z,3.40
2019-03-18T06:15:22.135Z,3.50
2019-03-18T06:17:53.009Z,3.40
2019-03-18T06:20:22.581Z,3.40
2019-03-18T06:22:51.933Z,3.50
2019-03-18T06:25:21.263Z,3.50
2019-03-18T06:27:50.599Z,3.50
2019-03-18T06:30:19.978Z,3.50
2019-03-18T06:32:49.398Z,3.40
2019-03-18T06:35:20.556Z,3.40
2019-03-18T06:37:49.915Z,3.50
2019-03-18T06:40:19.238Z,3.50
2019-03-18T06:42:48.583Z,3.50
2019-03-18T06:45:18.102Z,3.60
2019-03-18T06:47:47.431Z,3.60
2019-03-18T06:50:16.794Z,3.60
2019-03-18T06:52:46.121Z,3.70
2019-03-18T06:55:15.458Z,3.60
2019-03-18T06:57:44.867Z,3.70
2019-03-18T07:00:14.287Z,3.80
2019-03-18T07:02:43.613Z,3.80
2019-03-18T07:05:12.969Z,3.90
2019-03-18T07:07:42.302Z,3.90
2019-03-18T07:10:11.644Z,3.90
2019-03-18T07:12:41.069Z,4.00
2019-03-18T07:15:11.007Z,3.90
2019-03-18T07:17:40.409Z,4.00
2019-03-18T07:20:10.451Z,4.00
2019-03-18T07:22:39.790Z,4.10
2019-03-18T07:25:09.625Z,4.10
2019-03-18T07:27:39.022Z,4.20
2019-03-18T07:30:09.581Z,4.30
2019-03-18T07:32:38.926Z,4.40
2019-03-18T07:35:08.319Z,4.40
2019-03-18T07:37:37.656Z,4.40
2019-03-18T07:40:10.993Z,4.40
2019-03-18T07:42:39.155Z,4.50
2019-03-18T07:45:10.244Z,4.50
2019-03-18T07:47:39.642Z,4.60
2019-03-18T07:50:09.507Z,4.50
2019-03-18T07:52:38.846Z,4.50
2019-03-18T07:55:08.335Z,4.60
2019-03-18T07:57:37.651Z,4.60
2019-03-18T08:00:07.113Z,4.60
2019-03-18T08:02:36.438Z,4.60
2019-03-18T08:05:07.102Z,4.60
2019-03-18T08:07:36.514Z,4.60
2019-03-18T08:10:06.937Z,4.60
2019-03-18T08:12:36.334Z,4.70
2019-03-18T08:15:06.167Z,4.80
2019-03-18T08:17:35.487Z,4.70
2019-03-18T08:20:05.384Z,4.70
2019-03-18T08:22:34.703Z,4.60
2019-03-18T08:25:04.467Z,4.60
2019-03-18T08:27:34.100Z,4.60
2019-03-18T08:30:03.446Z,4.50
2019-03-18T08:32:32.774Z,4.60
2019-03-18T08:35:02.326Z,4.70
2019-03-18T08:37:31.659Z,4.80
2019-03-18T08:40:01.059Z,4.70
2019-03-18T08:42:30.463Z,4.70
2019-03-18T08:44:59.878Z,4.60
2019-03-18T08:47:29.195Z,4.60
2019-03-18T08:49:58.526Z,4.70
2019-03-18T08:52:27.854Z,4.80
2019-03-18T08:54:57.190Z,4.80
2019-03-18T08:57:26.585Z,4.90
2019-03-18T08:59:55.991Z,4.80
2019-03-18T09:02:25.331Z,4.90
2019-03-18T09:04:54.656Z,5.00
2019-03-18T09:07:24.191Z,4.90
2019-03-18T09:09:53.514Z,4.80
2019-03-18T09:12:22.834Z,4.70
2019-03-18T09:14:52.269Z,4.70
2019-03-18T09:17:21.671Z,4.70
2019-03-18T09:19:51.052Z,4.70
2019-03-18T09:22:20.371Z,4.80
2019-03-18T09:24:49.691Z,4.90
2019-03-18T09:27:19.049Z,5.10
2019-03-18T09:29:48.438Z,5.00
2019-03-18T09:32:17.762Z,5.00
2019-03-18T09:34:47.133Z,5.10
2019-03-18T09:37:16.461Z,5.20
2019-03-18T09:39:46.271Z,5.20
2019-03-18T09:42:17.925Z,5.10
2019-03-18T09:44:46.787Z,5.00
2019-03-18T09:47:16.119Z,5.10
2019-03-18T09:49:45.734Z,5.00
2019-03-18T09:52:15.087Z,5.10
2019-03-18T09:54:44.686Z,5.00
2019-03-18T09:57:25.356Z,5.10
2019-03-18T09:59:45.045Z,5.00
2019-03-18T10:02:14.378Z,5.00
2019-03-18T10:04:43.709Z,5.00
2019-03-18T10:07:13.030Z,5.10
2019-03-18T10:09:42.381Z,5.10
2019-03-18T10:12:11.706Z,4.90
2019-03-18T10:14:41.055Z,5.00
2019-03-18T10:17:10.402Z,5.00
2019-03-18T10:19:39.791Z,5.10
2019-03-18T10:22:09.115Z,5.20
2019-03-18T10:24:38.447Z,5.00
2019-03-18T10:27:07.771Z,5.00
2019-03-18T10:29:37.212Z,5.00
2019-03-18T10:32:06.616Z,5.00
2019-03-18T10:34:35.935Z,5.10
2019-03-18T10:37:05.526Z,4.90
2019-03-18T10:39:34.863Z,5.00
2019-03-18T10:42:04.268Z,5.00
2019-03-18T10:44:33.592Z,5.00
2019-03-18T10:47:02.929Z,5.10
2019-03-18T10:49:32.259Z,5.20
2019-03-18T10:52:01.761Z,5.10
2019-03-18T10:54:31.473Z,5.20
2019-03-18T10:57:00.945Z,5.10
2019-03-18T10:59:30.322Z,5.20
2019-03-18T11:02:00.561Z,5.30
2019-03-18T11:04:29.894Z,5.40
2019-03-18T11:06:59.239Z,5.40
2019-03-18T11:09:28.656Z,5.40
2019-03-18T11:11:58.166Z,5.40
2019-03-18T11:14:27.511Z,5.50
2019-03-18T11:16:56.884Z,5.40
2019-03-18T11:19:26.271Z,5.50
2019-03-18T11:21:55.592Z,5.40
2019-03-18T11:24:24.928Z,5.50
2019-03-18T11:26:55.453Z,5.50
2019-03-18T11:29:24.881Z,5.50
2019-03-18T11:31:54.311Z,5.40
2019-03-18T11:34:23.714Z,5.30
2019-03-18T11:36:53.112Z,5.30
2019-03-18T11:39:22.499Z,5.20
2019-03-18T11:41:52.080Z,5.20
2019-03-18T11:44:21.742Z,5.30
2019-03-18T11:46:51.180Z,5.20
2019-03-18T11:49:21.028Z,5.20
2019-03-18T11:51:50.354Z,5.10
2019-03-18T11:54:19.706Z,5.10
2019-03-18T11:56:49.198Z,5.30
2019-03-18T11:59:20.873Z,5.20
2019-03-18T12:01:49.632Z,5.20
2019-03-18T12:04:18.967Z,5.20
2019-03-18T12:06:48.298Z,5.20
2019-03-18T12:09:17.642Z,5.10
2019-03-18T12:11:46.971Z,5.20
2019-03-18T12:14:16.308Z,5.00
2019-03-18T12:16:45.729Z,5.00
2019-03-18T12:19:15.138Z,5.00
2019-03-18T12:21:44.559Z,4.90
2019-03-18T12:24:13.892Z,5.00
2019-03-18T12:26:43.231Z,5.10
2019-03-18T12:29:12.623Z,5.10
2019-03-18T12:31:41.950Z,5.20
2019-03-18T12:34:11.372Z,5.20
2019-03-18T12:36:40.708Z,5.20
2019-03-18T12:39:10.111Z,5.20
2019-03-18T12:41:39.430Z,5.10
2019-03-18T12:44:08.763Z,5.00
2019-03-18T12:46:38.103Z,5.00
2019-03-18T12:49:07.435Z,5.00
2019-03-18T12:51:36.843Z,4.90
2019-03-18T12:54:06.587Z,4.80
2019-03-18T12:56:35.918Z,4.70
2019-03-18T12:59:05.251Z,4.70
2019-03-18T13:01:34.575Z,4.70
2019-03-18T13:04:03.907Z,4.60
2019-03-18T13:06:33.644Z,4.60
2019-03-18T13:09:03.159Z,4.70
2019-03-18T13:11:32.711Z,4.60
2019-03-18T13:14:02.039Z,4.40
2019-03-18T13:16:31.467Z,4.40
2019-03-18T13:19:00.810Z,4.30
2019-03-18T13:21:30.943Z,4.20
2019-03-18T13:24:00.741Z,4.30
2019-03-18T13:26:30.147Z,4.30
2019-03-18T13:28:59.479Z,4.30
2019-03-18T13:31:28.911Z,4.30
2019-03-18T13:33:58.548Z,4.40
2019-03-18T13:36:27.959Z,4.50
2019-03-18T13:38:57.363Z,4.50
2019-03-18T13:41:26.763Z,4.40
2019-03-18T13:43:56.355Z,4.40
2019-03-18T13:46:25.659Z,4.40
2019-03-18T13:48:55.015Z,4.30
2019-03-18T13:51:24.372Z,4.30
2019-03-18T13:53:53.766Z,4.30
2019-03-18T13:56:23.103Z,4.30
2019-03-18T13:58:52.454Z,4.30
2019-03-18T14:01:21.793Z,4.20
2019-03-18T14:03:51.122Z,4.20
2019-03-18T14:06:20.455Z,4.10
2019-03-18T14:08:49.778Z,4.10
2019-03-18T14:11:19.180Z,4.10
2019-03-18T14:13:48.722Z,4.10
2019-03-18T14:16:18.046Z,4.00
2019-03-18T14:18:47.462Z,4.10
2019-03-18T14:21:16.807Z,4.10
2019-03-18T14:23:46.395Z,4.10
2019-03-18T14:26:16.004Z,4.00
2019-03-18T14:28:45.338Z,4.10
2019-03-18T14:31:14.667Z,4.00
2019-03-18T14:33:44.055Z,4.10
2019-03-18T14:36:13.393Z,4.20
2019-03-18T14:38:42.725Z,4.20
2019-03-18T14:41:12.061Z,4.20
2019-03-18T14:43:41.386Z,4.10
2019-03-18T14:46:10.972Z,4.10
2019-03-18T14:48:40.308Z,4.10
2019-03-18T14:51:09.638Z,4.00
2019-03-18T14:53:38.947Z,4.00
2019-03-18T14:56:08.263Z,3.90
2019-03-18T14:58:37.591Z,4.00
2019-03-18T15:01:06.951Z,3.90
2019-03-18T15:03:36.354Z,3.80
2019-03-18T15:06:05.757Z,3.70
2019-03-18T15:08:35.083Z,3.50
2019-03-18T15:11:04.418Z,3.40
2019-03-18T15:13:33.739Z,3.40
2019-03-18T15:16:03.079Z,3.20
2019-03-18T15:18:32.474Z,3.10
2019-03-18T15:21:01.814Z,3.30
2019-03-18T15:23:31.217Z,3.30
2019-03-18T15:26:00.627Z,3.20
2019-03-18T15:28:30.388Z,3.00
2019-03-18T15:31:00.153Z,3.00
2019-03-18T15:33:30.075Z,2.90
2019-03-18T15:35:59.461Z,2.70
2019-03-18T15:38:28.790Z,2.60
2019-03-18T15:40:58.223Z,2.60
2019-03-18T15:43:27.564Z,2.50
2019-03-18T15:45:56.970Z,2.60
2019-03-18T15:48:26.306Z,2.50
2019-03-18T15:50:55.697Z,2.40
2019-03-18T15:53:25.015Z,2.40
2019-03-18T15:55:54.335Z,2.40
2019-03-18T15:58:23.661Z,2.30
2019-03-18T16:00:52.980Z,2.20
2019-03-18T16:03:22.313Z,2.10
2019-03-18T16:05:51.735Z,2.00
2019-03-18T16:08:21.090Z,2.00
2019-03-18T16:10:50.486Z,1.90
2019-03-18T16:13:19.887Z,1.90
2019-03-18T16:15:49.259Z,1.80
2019-03-18T16:18:18.676Z,1.70
2019-03-18T16:20:48.023Z,1.70
2019-03-18T16:23:17.377Z,1.70
2019-03-18T16:25:46.714Z,1.60
2019-03-18T16:28:16.047Z,1.70
2019-03-18T16:30:45.381Z,1.70
2019-03-18T16:33:14.694Z,1.70
2019-03-18T16:35:44.022Z,1.60
2019-03-18T16:38:13.358Z,1.50
2019-03-18T16:40:42.716Z,1.40
2019-03-18T16:43:12.045Z,1.50
2019-03-18T16:45:41.886Z,1.40
2019-03-18T16:48:11.207Z,1.30
2019-03-18T16:50:40.547Z,1.30
2019-03-18T16:53:10.122Z,1.20
2019-03-18T16:55:39.538Z,1.20
2019-03-18T16:58:08.959Z,1.30
2019-03-18T17:00:38.323Z,1.20
2019-03-18T17:03:07.671Z,1.20
2019-03-18T17:05:37.549Z,1.20
2019-03-18T17:08:07.358Z,1.10
2019-03-18T17:10:36.719Z,1.10
2019-03-18T17:13:06.125Z,1.10
2019-03-18T17:15:35.473Z,1.10
2019-03-18T17:18:04.802Z,1.00
2019-03-18T17:20:34.155Z,1.00
2019-03-18T17:23:03.494Z,1.00
2019-03-18T17:25:33.476Z,1.00
2019-03-18T17:28:02.805Z,1.00
2019-03-18T17:30:32.231Z,1.00
2019-03-18T17:33:01.562Z,1.00
2019-03-18T17:35:30.963Z,0.90
2019-03-18T17:38:00.302Z,0.90
2019-03-18T17:40:29.906Z,0.90
2019-03-18T17:42:59.323Z,0.90
2019-03-18T17:45:28.939Z,0.90
2019-03-18T17:47:58.386Z,0.80
2019-03-18T17:50:27.770Z,0.80
2019-03-18T17:53:02.811Z,0.80
2019-03-18T17:55:28.163Z,0.80
2019-03-18T17:57:57.492Z,0.80
2019-03-18T18:00:34.651Z,0.80
2019-03-18T18:03:03.967Z,0.90
2019-03-18T18:05:33.304Z,0.80
2019-03-18T18:08:02.623Z,0.90
2019-03-18T18:10:31.944Z,0.80
2019-03-18T18:13:01.280Z,0.80
2019-03-18T18:15:30.605Z,0.90
2019-03-18T18:17:59.998Z,0.90
2019-03-18T18:20:29.434Z,0.90
2019-03-18T18:22:58.826Z,0.90
2019-03-18T18:25:28.147Z,0.90
2019-03-18T18:27:57.468Z,0.80
2019-03-18T18:30:26.787Z,0.80
2019-03-18T18:32:56.122Z,0.70
2019-03-18T18:35:25.510Z,0.80
2019-03-18T18:37:54.839Z,0.90
2019-03-18T18:40:24.271Z,0.90
2019-03-18T18:42:53.698Z,0.80
2019-03-18T18:45:23.093Z,0.90
2019-03-18T18:47:52.413Z,0.90
2019-03-18T18:50:21.816Z,0.90
2019-03-18T18:52:51.204Z,1.00
2019-03-18T18:55:20.525Z,0.90
2019-03-18T18:57:49.858Z,0.90
2019-03-18T19:00:19.444Z,0.80
2019-03-18T19:02:48.862Z,0.80
2019-03-18T19:05:18.295Z,0.80
2019-03-18T19:07:48.188Z,0.70
2019-03-18T19:10:17.518Z,0.80
2019-03-18T19:12:46.844Z,0.80
2019-03-18T19:15:18.220Z,0.80
2019-03-18T19:17:47.566Z,0.70
2019-03-18T19:20:16.899Z,0.70
2019-03-18T19:22:46.582Z,0.70
2019-03-18T19:25:16.248Z,0.70
2019-03-18T19:27:45.871Z,0.70
2019-03-18T19:30:16.986Z,0.70
2019-03-18T19:32:46.412Z,0.70
2019-03-18T19:35:15.910Z,0.70
2019-03-18T19:37:45.307Z,0.80
2019-03-18T19:40:14.861Z,0.80
2019-03-18T19:42:44.249Z,0.70
2019-03-18T19:45:13.907Z,0.80
2019-03-18T19:47:43.368Z,0.70
2019-03-18T19:50:14.695Z,0.70
2019-03-18T19:52:44.030Z,0.60
2019-03-18T19:55:13.434Z,0.70
2019-03-18T19:57:42.889Z,0.70
2019-03-18T20:00:14.579Z,0.70
2019-03-18T20:02:43.910Z,0.70
2019-03-18T20:05:15.718Z,0.70
2019-03-18T20:07:44.926Z,0.70
2019-03-18T20:10:14.299Z,0.60
2019-03-18T20:12:44.015Z,0.70
2019-03-18T20:15:13.995Z,0.70
2019-03-18T20:17:43.324Z,0.70
2019-03-18T20:20:13.990Z,0.60
2019-03-18T20:22:43.387Z,0.70
2019-03-18T20:25:12.737Z,0.60
2019-03-18T20:27:42.128Z,0.60
2019-03-18T20:30:13.541Z,0.70
2019-03-18T20:32:42.927Z,0.70
2019-03-18T20:35:12.856Z,0.60
2019-03-18T20:37:42.266Z,0.70
2019-03-18T20:40:12.454Z,0.60
2019-03-18T20:42:41.980Z,0.60
2019-03-18T20:45:13.051Z,0.60
2019-03-18T20:47:42.365Z,0.60
2019-03-18T20:50:13.017Z,0.50
2019-03-18T20:52:42.371Z,0.60
2019-03-18T20:55:12.078Z,0.60
2019-03-18T20:57:41.478Z,0.60
2019-03-18T21:00:11.775Z,0.70
2019-03-18T21:02:41.099Z,0.70
2019-03-18T21:05:10.505Z,0.60
2019-03-18T21:07:39.906Z,0.60
2019-03-18T21:10:09.480Z,0.60
2019-03-18T21:12:41.160Z,0.60
2019-03-18T21:15:09.867Z,0.50
2019-03-18T21:17:39.204Z,0.50
2019-03-18T21:20:10.850Z,0.60
2019-03-18T21:22:40.243Z,0.50
2019-03-18T21:25:09.584Z,0.50
2019-03-18T21:27:38.970Z,0.60
2019-03-18T21:30:08.767Z,0.50
2019-03-18T21:32:38.096Z,0.50
2019-03-18T21:35:07.794Z,0.50
2019-03-18T21:37:37.114Z,0.60
2019-03-18T21:40:06.878Z,0.50
2019-03-18T21:42:36.209Z,0.50
2019-03-18T21:45:05.731Z,0.50
2019-03-18T21:47:35.360Z,0.40
2019-03-18T21:50:05.040Z,0.40
2019-03-18T21:52:34.438Z,0.50
2019-03-18T21:55:03.767Z,0.50
2019-03-18T21:57:33.369Z,0.50
2019-03-18T22:00:02.701Z,0.50
2019-03-18T22:02:32.023Z,0.60
2019-03-18T22:05:01.870Z,0.50
2019-03-18T22:07:31.250Z,0.50
2019-03-18T22:10:00.721Z,0.50
2019-03-18T22:12:30.055Z,0.50
2019-03-18T22:14:59.383Z,0.50
2019-03-18T22:17:28.702Z,0.50
2019-03-18T22:19:58.020Z,0.50
2019-03-18T22:22:27.439Z,0.50
2019-03-18T22:24:56.771Z,0.50
2019-03-18T22:27:26.095Z,0.40
2019-03-18T22:29:55.729Z,0.50
2019-03-18T22:32:25.150Z,0.50
2019-03-18T22:34:54.578Z,0.50
2019-03-18T22:37:23.900Z,0.40
2019-03-18T22:39:53.222Z,0.40
2019-03-18T22:42:22.553Z,0.50
2019-03-18T22:44:51.881Z,0.40
2019-03-18T22:47:21.187Z,0.40
2019-03-18T22:49:50.510Z,0.30
2019-03-18T22:52:19.841Z,0.30
2019-03-18T22:54:55.830Z,0.30
2019-03-18T22:57:20.224Z,0.30
2019-03-18T22:59:49.555Z,0.40
2019-03-18T23:02:18.898Z,0.40
2019-03-18T23:04:48.229Z,0.40
2019-03-18T23:07:17.568Z,0.50
2019-03-18T23:09:46.902Z,0.40
2019-03-18T23:12:16.475Z,0.40
2019-03-18T23:14:45.811Z,0.40
2019-03-18T23:17:15.135Z,0.40
2019-03-18T23:19:44.750Z,0.50
2019-03-18T23:22:14.102Z,0.40
2019-03-18T23:24:43.622Z,0.40
2019-03-18T23:27:12.959Z,0.40
2019-03-18T23:29:42.362Z,0.40
2019-03-18T23:32:11.703Z,0.40
2019-03-18T23:34:41.038Z,0.40
2019-03-18T23:37:10.362Z,0.40
2019-03-18T23:39:39.700Z,0.40
2019-03-18T23:42:09.328Z,0.50
2019-03-18T23:44:38.659Z,0.50
2019-03-18T23:47:07.988Z,0.50
2019-03-18T23:49:37.311Z,0.50
2019-03-18T23:52:06.634Z,0.50
2019-03-18T23:54:35.966Z,0.50
2019-03-18T23:57:05.302Z,0.50
2019-03-18T23:59:34.714Z,0.50
